This is the latest recevied weather packets stored in our database for station/object DJ3AN. If no packets are shown the sender has not sent any weather packets the latest 10 day(s).
| Time | Temp. | Humidity | Pressure | Rain* | Wind** | Luminosity | Snow |
|---|---|---|---|---|---|---|---|
| 1777825206 | 19.44° C | 76% | 1008 hPa | 0 mm | - | - | - |
| 1777824906 | 19.44° C | 75% | 1008 hPa | 0 mm | - | - | - |
| 1777824606 | 20° C | 75% | 1007.8 hPa | 0 mm | - | - | - |
| 1777824306 | 20° C | 75% | 1007.8 hPa | 0 mm | - | - | - |
| 1777824006 | 20.56° C | 74% | 1007.7 hPa | 0 mm | - | - | - |
| 1777823706 | 21.11° C | 71% | 1007.7 hPa | 0 mm | - | - | - |
| 1777823407 | 22.22° C | 56% | 1007.7 hPa | 0 mm | - | - | - |
| 1777823106 | 22.78° C | 53% | 1007.5 hPa | 0 mm | - | - | - |
| 1777822806 | 22.78° C | 50% | 1007.3 hPa | 0 mm | - | - | - |
| 1777822506 | 23.33° C | 48% | 1007.2 hPa | 0 mm | - | - | - |
| 1777822206 | 23.33° C | 47% | 1007.1 hPa | 0 mm | - | - | - |
| 1777821906 | 23.89° C | 47% | 1007 hPa | 0 mm | - | - | - |
| 1777821606 | 23.89° C | 47% | 1007 hPa | 0 mm | - | - | - |
| 1777821305 | 23.89° C | 48% | 1007 hPa | 0 mm | - | - | - |
| 1777821005 | 23.89° C | 47% | 1007 hPa | 0 mm | - | - | - |
| 1777820705 | 24.44° C | 47% | 1007 hPa | 0 mm | - | - | - |
| 1777820405 | 24.44° C | 47% | 1007 hPa | 0 mm | - | - | - |
| 1777820105 | 24.44° C | 45% | 1007 hPa | 0 mm | - | - | - |
| 1777819806 | 25° C | 44% | 1007.1 hPa | 0 mm | - | - | - |
| 1777819505 | 25° C | 44% | 1007.1 hPa | 0 mm | - | - | - |
| 1777819205 | 25° C | 43% | 1007.1 hPa | 0 mm | - | - | - |
| 1777818905 | 25° C | 44% | 1007.1 hPa | 0 mm | - | - | - |
| 1777818605 | 25.56° C | 45% | 1007.2 hPa | 0 mm | - | - | - |
| 1777818305 | 25.56° C | 43% | 1007.2 hPa | 0 mm | - | - | - |
| 1777818005 | 25.56° C | 43% | 1007.2 hPa | 0 mm | - | - | - |
* Rain latest hour (hover to see other rain measurements)
** Current wind speed in m/s (hover to see current wind gust speed)